createdAt,value
2023-04-27T00:00:42.832Z,73.96
2023-04-27T00:01:43.974Z,51.40
2023-04-27T00:02:44.076Z,52.37
2023-04-27T00:03:43.365Z,72.03
2023-04-27T00:04:44.678Z,72.19
2023-04-27T00:05:46.469Z,61.55
2023-04-27T00:06:43.892Z,64.13
2023-04-27T00:07:44.991Z,54.14
2023-04-27T00:08:44.953Z,54.79
2023-04-27T00:09:44.326Z,77.18
2023-04-27T00:10:46.452Z,55.27
2023-04-27T00:11:45.599Z,50.76
2023-04-27T00:12:47.449Z,52.37
2023-04-27T00:13:45.974Z,53.01
2023-04-27T00:14:45.242Z,78.96
2023-04-27T00:15:47.450Z,63.97
2023-04-27T00:16:45.605Z,59.46
2023-04-27T00:17:46.539Z,54.79
2023-04-27T00:18:45.945Z,49.79
2023-04-27T00:19:47.472Z,50.27
2023-04-27T00:20:47.335Z,77.02
2023-04-27T00:21:47.495Z,83.14
2023-04-27T00:22:47.450Z,51.72
2023-04-27T00:23:46.966Z,52.05
2023-04-27T00:24:47.949Z,51.24
2023-04-27T00:25:47.949Z,50.92
2023-04-27T00:26:47.457Z,50.92
2023-04-27T00:27:48.510Z,51.56
2023-04-27T00:28:48.458Z,51.08
2023-04-27T00:29:47.919Z,51.56
2023-04-27T00:30:48.044Z,51.56
2023-04-27T00:31:48.235Z,51.24
2023-04-27T00:32:49.971Z,53.01
2023-04-27T00:33:49.489Z,52.53
2023-04-27T00:34:49.456Z,53.17
2023-04-27T00:35:49.449Z,51.08
2023-04-27T00:36:49.505Z,51.72
2023-04-27T00:37:49.258Z,71.38
2023-04-27T00:38:49.999Z,53.50
2023-04-27T00:39:49.526Z,52.21
2023-04-27T00:40:49.673Z,50.76
2023-04-27T00:41:49.805Z,51.24
2023-04-27T00:42:50.496Z,51.72
2023-04-27T00:43:50.134Z,52.05
2023-04-27T00:44:50.273Z,68.00
2023-04-27T00:45:50.535Z,65.10
2023-04-27T00:46:50.597Z,64.29
2023-04-27T00:47:50.752Z,76.86
2023-04-27T00:48:51.507Z,51.56
2023-04-27T00:49:51.998Z,51.72
2023-04-27T00:50:52.453Z,54.46
2023-04-27T00:51:51.948Z,53.98
2023-04-27T00:52:51.587Z,51.72
2023-04-27T00:53:51.760Z,64.29
2023-04-27T00:54:51.937Z,78.47
2023-04-27T00:55:52.999Z,63.81
2023-04-27T00:56:52.262Z,53.01
2023-04-27T00:57:52.447Z,51.88
2023-04-27T00:58:53.515Z,54.14
2023-04-27T00:59:52.813Z,51.72
2023-04-27T01:00:53.528Z,53.01
2023-04-27T01:01:53.256Z,74.77
2023-04-27T01:02:53.591Z,53.82
2023-04-27T01:03:54.690Z,53.17
2023-04-27T01:04:54.513Z,52.21
2023-04-27T01:05:54.510Z,56.07
2023-04-27T01:06:54.049Z,54.46
2023-04-27T01:07:54.991Z,57.20
2023-04-27T01:08:54.433Z,73.48
2023-04-27T01:09:55.459Z,53.01
2023-04-27T01:10:54.822Z,53.82
2023-04-27T01:11:56.468Z,52.05
2023-04-27T01:12:56.000Z,52.85
2023-04-27T01:13:55.429Z,51.72
2023-04-27T01:14:56.497Z,59.30
2023-04-27T01:15:55.760Z,56.40
2023-04-27T01:16:55.952Z,54.46
2023-04-27T01:17:56.146Z,51.72
2023-04-27T01:18:56.304Z,53.01
2023-04-27T01:19:56.454Z,75.89
2023-04-27T01:20:58.463Z,62.52
2023-04-27T01:21:57.501Z,78.63
2023-04-27T01:22:57.505Z,52.37
2023-04-27T01:23:57.278Z,51.40
2023-04-27T01:24:57.438Z,53.82
2023-04-27T01:25:57.575Z,56.40
2023-04-27T01:26:58.007Z,52.21
2023-04-27T01:27:59.457Z,77.18
2023-04-27T01:28:59.013Z,76.86
2023-04-27T01:29:59.466Z,57.85
2023-04-27T01:30:58.499Z,52.53
2023-04-27T01:31:58.705Z,75.73
2023-04-27T01:32:58.948Z,51.56
2023-04-27T01:33:59.072Z,58.01
2023-04-27T01:34:59.214Z,82.66
2023-04-27T01:35:59.996Z,55.43
2023-04-27T01:37:01.469Z,75.09
2023-04-27T01:37:59.741Z,57.85
2023-04-27T01:38:59.888Z,53.50
2023-04-27T01:40:01.467Z,52.69
2023-04-27T01:41:00.184Z,53.33
2023-04-27T01:42:00.358Z,51.88
2023-04-27T01:43:01.467Z,51.40
2023-04-27T01:44:00.757Z,52.85
2023-04-27T01:45:01.044Z,78.47
2023-04-27T01:46:02.084Z,52.05
2023-04-27T01:47:01.858Z,53.33
2023-04-27T01:48:02.068Z,77.67
2023-04-27T01:49:04.467Z,57.36
2023-04-27T01:50:01.844Z,74.44
2023-04-27T01:51:03.465Z,57.52
2023-04-27T01:52:04.473Z,51.08
2023-04-27T01:53:02.309Z,55.59
2023-04-27T01:54:02.460Z,76.05
2023-04-27T01:55:03.482Z,79.44
2023-04-27T01:56:02.735Z,52.69
2023-04-27T01:57:02.850Z,55.43
2023-04-27T01:58:04.138Z,77.18
2023-04-27T01:59:03.173Z,53.98
2023-04-27T02:00:03.376Z,58.65
2023-04-27T02:01:04.016Z,54.79
2023-04-27T02:02:04.616Z,73.15
2023-04-27T02:03:04.073Z,81.69
2023-04-27T02:04:05.328Z,79.76
2023-04-27T02:05:04.313Z,56.88
2023-04-27T02:06:04.557Z,66.23
2023-04-27T02:07:05.357Z,81.37
2023-04-27T02:08:05.520Z,52.21
2023-04-27T02:09:04.919Z,54.79
2023-04-27T02:10:06.017Z,80.41
2023-04-27T02:11:05.284Z,74.60
2023-04-27T02:12:05.435Z,84.76
2023-04-27T02:13:05.553Z,80.89
2023-04-27T02:14:06.171Z,58.65
2023-04-27T02:15:06.545Z,73.64
2023-04-27T02:16:07.105Z,52.69
2023-04-27T02:17:07.480Z,52.69
2023-04-27T02:18:07.520Z,51.56
2023-04-27T02:19:06.654Z,53.33
2023-04-27T02:20:08.469Z,52.53
2023-04-27T02:21:08.016Z,59.62
2023-04-27T02:22:08.010Z,76.70
2023-04-27T02:23:07.487Z,79.76
2023-04-27T02:24:07.613Z,73.15
2023-04-27T02:25:07.758Z,61.23
2023-04-27T02:26:07.907Z,79.92
2023-04-27T02:27:08.067Z,61.87
2023-04-27T02:28:08.282Z,69.61
2023-04-27T02:29:08.443Z,74.93
2023-04-27T02:30:10.390Z,77.67
2023-04-27T02:31:09.508Z,70.90
2023-04-27T02:32:08.887Z,75.09
2023-04-27T02:33:10.505Z,54.62
2023-04-27T02:34:09.255Z,52.21
2023-04-27T02:35:09.398Z,54.14
2023-04-27T02:36:10.524Z,77.34
2023-04-27T02:37:10.543Z,56.72
2023-04-27T02:38:10.039Z,70.58
2023-04-27T02:39:10.074Z,76.70
2023-04-27T02:40:10.217Z,80.08
2023-04-27T02:41:12.000Z,63.81
2023-04-27T02:42:10.660Z,71.06
2023-04-27T02:43:11.520Z,82.34
2023-04-27T02:44:11.086Z,77.67
2023-04-27T02:45:11.170Z,83.47
2023-04-27T02:46:11.351Z,77.50
2023-04-27T02:47:11.590Z,58.17
2023-04-27T02:48:11.817Z,77.02
2023-04-27T02:49:12.148Z,77.34
2023-04-27T02:50:12.152Z,82.18
2023-04-27T02:51:12.355Z,82.66
2023-04-27T02:52:12.542Z,73.64
2023-04-27T02:53:12.723Z,75.41
2023-04-27T02:54:12.940Z,80.41
2023-04-27T02:55:13.036Z,80.24
2023-04-27T02:56:13.977Z,78.79
2023-04-27T02:57:13.401Z,81.37
2023-04-27T02:58:14.531Z,80.41
2023-04-27T02:59:14.060Z,72.67
2023-04-27T03:00:15.019Z,78.47
2023-04-27T03:01:14.294Z,80.08
2023-04-27T03:02:14.475Z,77.34
2023-04-27T03:03:15.687Z,78.47
2023-04-27T03:04:16.249Z,81.53
2023-04-27T03:05:14.861Z,80.73
2023-04-27T03:06:14.992Z,76.86
2023-04-27T03:07:15.132Z,76.86
2023-04-27T03:08:15.975Z,82.02
2023-04-27T03:10:17.006Z,77.34
2023-04-27T03:11:19.440Z,81.05
2023-04-27T03:12:15.892Z,79.76
2023-04-27T03:13:16.034Z,79.28
2023-04-27T03:14:16.158Z,78.96
2023-04-27T03:15:17.325Z,79.12
2023-04-27T03:16:17.047Z,80.41
2023-04-27T03:17:16.596Z,74.28
2023-04-27T03:18:18.483Z,78.47
2023-04-27T03:19:16.938Z,78.31
2023-04-27T03:20:17.987Z,77.67
2023-04-27T03:21:17.546Z,81.69
2023-04-27T03:22:17.410Z,80.24
2023-04-27T03:23:19.479Z,77.18
2023-04-27T03:24:19.478Z,79.76
2023-04-27T03:25:17.823Z,80.57
2023-04-27T03:26:17.958Z,80.73
2023-04-27T03:27:18.980Z,80.08
2023-04-27T03:28:19.367Z,80.08
2023-04-27T03:29:18.576Z,81.21
2023-04-27T03:30:18.810Z,79.12
2023-04-27T03:31:20.088Z,81.05
2023-04-27T03:32:19.530Z,78.96
2023-04-27T03:33:19.546Z,82.50
2023-04-27T03:34:19.546Z,81.21
2023-04-27T03:35:19.702Z,82.18
2023-04-27T03:36:20.520Z,80.24
2023-04-27T03:37:21.072Z,83.79
2023-04-27T03:38:20.193Z,80.73
2023-04-27T03:39:20.308Z,81.21
2023-04-27T03:40:20.446Z,81.53
2023-04-27T03:41:20.578Z,80.73
2023-04-27T03:42:20.719Z,82.66
2023-04-27T03:43:22.430Z,83.63
2023-04-27T03:44:21.037Z,79.76
2023-04-27T03:45:21.153Z,82.18
2023-04-27T03:46:21.298Z,81.53
2023-04-27T03:47:43.176Z,82.02
2023-04-27T03:48:21.664Z,80.73
2023-04-27T03:49:22.483Z,78.79
2023-04-27T03:50:21.962Z,79.92
2023-04-27T03:51:23.046Z,82.82
2023-04-27T03:52:23.981Z,84.11
2023-04-27T03:53:23.989Z,82.98
2023-04-27T03:54:22.597Z,84.27
2023-04-27T03:55:24.491Z,82.50
2023-04-27T03:56:23.525Z,85.56
2023-04-27T03:57:23.985Z,83.31
2023-04-27T03:58:23.221Z,78.47
2023-04-27T03:59:23.365Z,80.89
2023-04-27T04:00:23.489Z,79.76
2023-04-27T04:01:24.529Z,82.18
2023-04-27T04:02:23.863Z,75.25
2023-04-27T04:03:24.688Z,80.24
2023-04-27T04:04:25.284Z,82.02
2023-04-27T04:05:25.059Z,81.53
2023-04-27T04:06:25.079Z,78.63
2023-04-27T04:07:24.588Z,82.34
2023-04-27T04:08:25.491Z,77.67
2023-04-27T04:09:24.836Z,83.79
2023-04-27T04:10:25.706Z,82.82
2023-04-27T04:11:27.024Z,87.33
2023-04-27T04:12:25.350Z,81.37
2023-04-27T04:13:25.531Z,79.28
2023-04-27T04:14:27.429Z,83.63
2023-04-27T04:15:25.895Z,79.28
2023-04-27T04:16:26.073Z,80.24
2023-04-27T04:17:27.049Z,82.34
2023-04-27T04:18:26.449Z,81.53
2023-04-27T04:19:27.106Z,82.02
2023-04-27T04:20:27.527Z,82.18
2023-04-27T04:21:27.488Z,80.08
2023-04-27T04:22:27.880Z,81.05
2023-04-27T04:23:27.386Z,78.63
2023-04-27T04:24:28.505Z,82.50
2023-04-27T04:25:27.740Z,81.21
2023-04-27T04:26:27.866Z,73.32
2023-04-27T04:27:28.010Z,83.95
2023-04-27T04:28:28.543Z,82.50
2023-04-27T04:29:30.000Z,83.47
2023-04-27T04:30:28.988Z,81.21
2023-04-27T04:31:28.657Z,81.21
2023-04-27T04:32:29.086Z,81.37
2023-04-27T04:33:29.532Z,81.86
2023-04-27T04:34:29.212Z,81.05
2023-04-27T04:35:30.012Z,81.53
2023-04-27T04:36:29.503Z,78.15
2023-04-27T04:37:29.641Z,80.24
2023-04-27T04:38:29.807Z,82.82
2023-04-27T04:39:29.957Z,83.14
2023-04-27T04:40:31.033Z,82.98
2023-04-27T04:41:31.876Z,81.21
2023-04-27T04:42:31.993Z,81.05
2023-04-27T04:43:30.753Z,85.08
2023-04-27T04:44:31.497Z,82.02
2023-04-27T04:45:32.996Z,79.44
2023-04-27T04:46:31.354Z,83.14
2023-04-27T04:47:31.448Z,80.57
2023-04-27T04:48:32.533Z,85.40
2023-04-27T04:49:32.533Z,80.41
2023-04-27T04:50:32.088Z,82.82
2023-04-27T04:51:32.274Z,80.41
2023-04-27T04:52:32.494Z,83.95
2023-04-27T04:53:32.671Z,81.37
2023-04-27T04:54:34.489Z,80.73
2023-04-27T04:55:33.046Z,80.57
2023-04-27T04:56:33.106Z,79.92
2023-04-27T04:57:35.006Z,84.92
2023-04-27T04:58:33.500Z,82.34
2023-04-27T04:59:34.498Z,82.50
2023-04-27T05:00:33.905Z,83.31
2023-04-27T05:01:39.069Z,80.24
2023-04-27T05:02:34.646Z,83.95
2023-04-27T05:03:34.570Z,79.92
2023-04-27T05:04:34.583Z,80.89
2023-04-27T05:05:34.739Z,81.05
2023-04-27T05:06:35.893Z,82.82
2023-04-27T05:07:35.004Z,80.08
2023-04-27T05:08:36.030Z,81.05
2023-04-27T05:09:37.514Z,84.27
2023-04-27T05:10:35.613Z,83.95
2023-04-27T05:11:35.753Z,82.82
2023-04-27T05:12:36.049Z,80.24
2023-04-27T05:13:36.082Z,81.37
2023-04-27T05:14:38.022Z,83.31
2023-04-27T05:15:36.451Z,82.02
2023-04-27T05:16:36.658Z,81.86
2023-04-27T05:17:37.553Z,79.60
2023-04-27T05:18:37.499Z,81.05
2023-04-27T05:19:38.053Z,80.73
2023-04-27T05:20:38.054Z,81.37
2023-04-27T05:21:37.433Z,81.86
2023-04-27T05:22:38.548Z,79.28
2023-04-27T05:23:38.502Z,79.76
2023-04-27T05:24:39.007Z,78.63
2023-04-27T05:25:38.239Z,81.21
2023-04-27T05:26:40.005Z,80.73
2023-04-27T05:27:39.615Z,79.92
2023-04-27T05:28:38.725Z,79.12
2023-04-27T05:29:38.996Z,78.15
2023-04-27T05:30:40.059Z,77.99
2023-04-27T05:31:40.079Z,82.02
2023-04-27T05:32:41.034Z,83.31
2023-04-27T05:33:40.540Z,81.05
2023-04-27T05:34:40.061Z,80.73
2023-04-27T05:35:41.520Z,84.11
2023-04-27T05:36:41.040Z,76.22
2023-04-27T05:37:41.051Z,80.57
2023-04-27T05:38:40.650Z,76.05
2023-04-27T05:39:40.674Z,77.99
2023-04-27T05:40:40.848Z,73.15
2023-04-27T05:41:41.092Z,76.70
2023-04-27T05:42:43.000Z,74.93
2023-04-27T05:43:41.352Z,79.76
2023-04-27T05:44:42.499Z,84.43
2023-04-27T05:45:41.804Z,77.02
2023-04-27T05:46:41.965Z,77.34
2023-04-27T05:47:43.091Z,77.18
2023-04-27T05:48:44.020Z,78.47
2023-04-27T05:49:42.560Z,75.57
2023-04-27T05:50:43.080Z,82.18
2023-04-27T05:51:43.507Z,79.12
2023-04-27T05:52:42.872Z,77.50
2023-04-27T05:53:43.027Z,83.31
2023-04-27T05:54:43.182Z,77.18
2023-04-27T05:55:43.340Z,79.44
2023-04-27T05:56:44.051Z,79.28
2023-04-27T05:57:43.684Z,74.93
2023-04-27T05:58:44.563Z,80.08
2023-04-27T05:59:44.090Z,79.28
2023-04-27T06:00:45.020Z,79.12
2023-04-27T06:01:44.400Z,76.38
2023-04-27T06:02:44.712Z,73.96
2023-04-27T06:03:45.130Z,74.60
2023-04-27T06:04:45.548Z,78.47
2023-04-27T06:05:45.901Z,72.51
2023-04-27T06:06:45.588Z,78.15
2023-04-27T06:07:46.524Z,75.73
2023-04-27T06:08:46.579Z,75.89
2023-04-27T06:09:46.557Z,73.48
2023-04-27T06:10:47.066Z,75.25
2023-04-27T06:11:46.417Z,78.79
2023-04-27T06:12:48.020Z,84.11
2023-04-27T06:13:47.561Z,74.60
2023-04-27T06:14:46.885Z,78.63
2023-04-27T06:15:47.014Z,73.32
2023-04-27T06:16:48.062Z,76.05
2023-04-27T06:17:47.631Z,79.28
2023-04-27T06:18:47.551Z,76.38
2023-04-27T06:19:48.564Z,81.53
2023-04-27T06:20:47.783Z,79.76
2023-04-27T06:21:47.933Z,79.60
2023-04-27T06:22:49.554Z,79.44
2023-04-27T06:23:48.570Z,78.47
2023-04-27T06:24:48.406Z,79.28
2023-04-27T06:25:49.527Z,82.18
2023-04-27T06:26:49.589Z,80.41
2023-04-27T06:27:48.960Z,81.05
2023-04-27T06:28:50.525Z,76.70
2023-04-27T06:29:51.024Z,80.24
2023-04-27T06:30:49.480Z,78.96
2023-04-27T06:31:49.688Z,77.99
2023-04-27T06:32:49.919Z,78.96
2023-04-27T06:33:51.024Z,72.99
2023-04-27T06:34:50.240Z,79.76
2023-04-27T06:35:50.388Z,82.50
2023-04-27T06:36:51.030Z,79.28
2023-04-27T06:37:51.532Z,90.56
2023-04-27T06:38:51.532Z,73.80
2023-04-27T06:39:52.023Z,79.28
2023-04-27T06:40:51.303Z,81.21
2023-04-27T06:41:52.065Z,77.34
2023-04-27T06:42:52.072Z,110.05
2023-04-27T06:43:52.533Z,82.98
2023-04-27T06:44:51.905Z,105.54
2023-04-27T06:45:52.094Z,79.76
2023-04-27T06:46:53.526Z,77.99
2023-04-27T06:47:53.046Z,79.76
2023-04-27T06:48:52.549Z,80.24
2023-04-27T06:49:52.709Z,78.79
2023-04-27T06:50:53.572Z,79.44
2023-04-27T06:51:53.563Z,77.99
2023-04-27T06:52:54.414Z,78.47
2023-04-27T06:53:54.243Z,78.79
2023-04-27T06:54:53.610Z,75.09
2023-04-27T06:55:54.569Z,79.28
2023-04-27T06:56:53.937Z,78.47
2023-04-27T06:57:54.579Z,78.31
2023-04-27T06:58:55.070Z,82.34
2023-04-27T06:59:54.462Z,76.86
2023-04-27T07:00:54.637Z,77.83
2023-04-27T07:01:55.585Z,81.86
2023-04-27T07:02:55.075Z,81.21
2023-04-27T07:03:55.231Z,76.70
2023-04-27T07:04:57.086Z,74.93
2023-04-27T07:05:55.530Z,78.31
2023-04-27T07:06:56.725Z,77.99
2023-04-27T07:07:56.856Z,80.57
2023-04-27T07:08:56.004Z,77.34
2023-04-27T07:09:57.544Z,76.38
2023-04-27T07:10:56.327Z,75.73
2023-04-27T07:11:58.532Z,76.38
2023-04-27T07:12:56.641Z,78.31
2023-04-27T07:13:56.839Z,77.99
2023-04-27T07:14:56.986Z,78.79
2023-04-27T07:15:58.252Z,77.67
2023-04-27T07:16:58.075Z,80.57
2023-04-27T07:17:57.485Z,79.76
2023-04-27T07:18:59.387Z,78.15
2023-04-27T07:19:58.586Z,79.44
2023-04-27T07:20:58.175Z,75.73
2023-04-27T07:21:58.249Z,79.44
2023-04-27T07:22:59.128Z,77.18
2023-04-27T07:23:58.633Z,78.31
2023-04-27T07:25:00.552Z,77.50
2023-04-27T07:25:59.072Z,79.12
2023-04-27T07:26:59.256Z,78.63
2023-04-27T07:28:00.546Z,73.96
2023-04-27T07:28:59.554Z,71.22
2023-04-27T07:30:00.577Z,78.15
2023-04-27T07:30:59.902Z,82.66
2023-04-27T07:32:00.103Z,80.57
2023-04-27T07:33:00.315Z,78.63
2023-04-27T07:34:00.346Z,105.86
2023-04-27T07:35:01.059Z,81.86
2023-04-27T07:36:02.045Z,78.96
2023-04-27T07:37:00.901Z,77.67
2023-04-27T07:38:01.144Z,78.31
2023-04-27T07:39:01.287Z,77.34
2023-04-27T07:40:01.606Z,77.50
2023-04-27T07:41:03.554Z,78.63
2023-04-27T07:42:02.664Z,76.22
2023-04-27T07:43:01.919Z,86.85
2023-04-27T07:44:02.647Z,77.02
2023-04-27T07:45:02.336Z,78.47
2023-04-27T07:46:02.574Z,78.47
2023-04-27T07:47:04.534Z,77.50
2023-04-27T07:48:03.920Z,78.31
2023-04-27T07:49:04.968Z,79.44
2023-04-27T07:50:04.050Z,82.18
2023-04-27T07:51:03.393Z,77.02
2023-04-27T07:52:05.061Z,79.44
2023-04-27T07:53:04.612Z,78.63
2023-04-27T07:54:03.843Z,78.79
2023-04-27T07:55:04.035Z,77.50
2023-04-27T07:56:05.088Z,84.11
2023-04-27T07:57:04.393Z,75.41
2023-04-27T07:58:04.539Z,80.57
2023-04-27T07:59:04.737Z,82.18
2023-04-27T08:00:05.541Z,79.76
2023-04-27T08:01:05.052Z,82.98
2023-04-27T08:02:17.657Z,80.24
2023-04-27T08:03:08.557Z,78.31
2023-04-27T08:04:06.405Z,77.18
2023-04-27T08:05:06.160Z,77.67
2023-04-27T08:06:06.110Z,82.66
2023-04-27T08:07:06.945Z,79.76
2023-04-27T08:08:06.348Z,76.22
2023-04-27T08:09:07.097Z,77.02
2023-04-27T08:10:07.670Z,76.38
2023-04-27T08:11:07.596Z,76.70
2023-04-27T08:12:08.075Z,77.34
2023-04-27T08:13:08.088Z,73.96
2023-04-27T08:14:08.047Z,76.22
2023-04-27T08:15:07.717Z,84.11
2023-04-27T08:16:07.935Z,77.99
2023-04-27T08:17:08.127Z,77.34
2023-04-27T08:18:09.466Z,76.22
2023-04-27T08:19:08.455Z,79.28
2023-04-27T08:20:08.690Z,75.25
2023-04-27T08:21:08.925Z,98.29
2023-04-27T08:22:09.164Z,73.96
2023-04-27T08:23:09.438Z,75.25
2023-04-27T08:24:09.580Z,76.54
2023-04-27T08:25:10.593Z,77.34
2023-04-27T08:26:09.954Z,77.50
2023-04-27T08:27:10.077Z,83.47
2023-04-27T08:28:10.186Z,77.67
2023-04-27T08:29:23.631Z,76.22
2023-04-27T08:30:12.535Z,77.18
2023-04-27T08:31:10.736Z,79.12
2023-04-27T08:32:11.589Z,77.18
2023-04-27T08:33:11.624Z,77.34
2023-04-27T08:34:11.616Z,76.70
2023-04-27T08:35:11.470Z,79.76
2023-04-27T08:36:12.592Z,75.09
2023-04-27T08:37:11.851Z,77.02
2023-04-27T08:38:11.999Z,77.99
2023-04-27T08:39:12.838Z,83.95
2023-04-27T08:40:14.059Z,78.79
2023-04-27T08:41:21.342Z,80.89
2023-04-27T08:42:15.688Z,78.15
2023-04-27T08:43:12.894Z,74.60
2023-04-27T08:44:14.568Z,76.86
2023-04-27T08:45:13.328Z,79.76
2023-04-27T08:46:13.530Z,77.83
2023-04-27T08:47:14.597Z,78.31
2023-04-27T08:48:14.593Z,79.60
2023-04-27T08:49:17.254Z,78.63
2023-04-27T08:50:15.385Z,79.12
2023-04-27T08:51:15.104Z,82.66
2023-04-27T08:52:14.701Z,77.18
2023-04-27T08:53:14.848Z,75.25
2023-04-27T08:54:15.078Z,78.47
2023-04-27T08:55:16.670Z,79.76
2023-04-27T08:56:18.110Z,76.22
2023-04-27T08:57:16.066Z,76.54
2023-04-27T08:58:16.766Z,77.34
2023-04-27T08:59:16.645Z,76.54
2023-04-27T09:00:17.141Z,75.57
2023-04-27T09:01:16.413Z,77.50
2023-04-27T09:02:16.761Z,78.79
2023-04-27T09:03:16.704Z,76.70
2023-04-27T09:04:17.149Z,78.79
2023-04-27T09:05:18.631Z,75.25
2023-04-27T09:06:17.271Z,76.70
2023-04-27T09:07:18.135Z,77.50
2023-04-27T09:08:17.428Z,74.12
2023-04-27T09:09:17.603Z,72.35
2023-04-27T09:10:17.777Z,77.83
2023-04-27T09:11:17.961Z,74.77
2023-04-27T09:12:19.145Z,77.83
2023-04-27T09:13:18.314Z,77.99
2023-04-27T09:14:18.522Z,80.89
2023-04-27T09:15:18.717Z,79.60
2023-04-27T09:16:18.971Z,78.79
2023-04-27T09:17:19.663Z,74.77
2023-04-27T09:18:20.109Z,75.89
2023-04-27T09:19:19.360Z,77.67
2023-04-27T09:20:20.120Z,78.96
2023-04-27T09:21:19.683Z,79.76
2023-04-27T09:22:20.578Z,80.24
2023-04-27T09:23:20.608Z,75.41
2023-04-27T09:24:21.122Z,76.05
2023-04-27T09:25:21.083Z,74.44
2023-04-27T09:26:20.465Z,77.02
2023-04-27T09:27:20.636Z,76.22
2023-04-27T09:28:20.778Z,79.44
2023-04-27T09:29:20.953Z,81.37
2023-04-27T09:30:21.116Z,75.73
2023-04-27T09:31:21.226Z,76.38
2023-04-27T09:32:22.016Z,78.79
2023-04-27T09:33:21.672Z,77.18
2023-04-27T09:34:22.578Z,75.73
2023-04-27T09:35:22.628Z,77.99
2023-04-27T09:36:23.148Z,75.57
2023-04-27T09:37:22.386Z,74.93
2023-04-27T09:38:22.518Z,85.56
2023-04-27T09:39:23.132Z,81.05
2023-04-27T09:40:22.919Z,77.83
2023-04-27T09:41:23.090Z,76.70
2023-04-27T09:42:23.248Z,78.47
2023-04-27T09:43:23.397Z,76.70
2023-04-27T09:44:23.643Z,75.25
2023-04-27T09:45:25.110Z,75.73
2023-04-27T09:46:24.039Z,74.77
2023-04-27T09:47:24.102Z,77.50
2023-04-27T09:48:24.285Z,76.86
2023-04-27T09:49:24.484Z,77.02
2023-04-27T09:50:24.658Z,76.05
2023-04-27T09:51:24.814Z,77.83
2023-04-27T09:52:24.949Z,73.32
2023-04-27T09:53:26.086Z,77.02
2023-04-27T09:54:25.364Z,77.02
2023-04-27T09:55:25.515Z,77.34
2023-04-27T09:56:26.630Z,75.73
2023-04-27T09:57:25.841Z,79.92
2023-04-27T09:58:25.976Z,79.76
2023-04-27T09:59:26.149Z,74.77
2023-04-27T10:00:26.297Z,77.67
2023-04-27T10:01:26.472Z,73.48
2023-04-27T10:02:26.795Z,76.70
2023-04-27T10:03:27.709Z,77.50
2023-04-27T10:04:27.330Z,76.54
2023-04-27T10:05:27.063Z,77.34
2023-04-27T10:06:27.235Z,77.02
2023-04-27T10:07:28.191Z,76.22
2023-04-27T10:08:28.978Z,74.28
2023-04-27T10:09:27.850Z,77.50
2023-04-27T10:10:28.008Z,78.63
2023-04-27T10:11:29.989Z,87.50
2023-04-27T10:12:28.389Z,77.99
2023-04-27T10:13:29.131Z,80.24
2023-04-27T10:14:29.636Z,76.22
2023-04-27T10:15:30.131Z,74.77
2023-04-27T10:16:29.204Z,75.89
2023-04-27T10:17:29.373Z,77.67
2023-04-27T10:18:29.528Z,72.99
2023-04-27T10:19:29.660Z,73.96
2023-04-27T10:20:30.590Z,79.12
2023-04-27T10:21:30.144Z,74.44
2023-04-27T10:22:30.109Z,75.73
2023-04-27T10:23:30.276Z,75.25
2023-04-27T10:24:31.132Z,75.57
2023-04-27T10:25:30.646Z,76.22
2023-04-27T10:26:32.969Z,79.76
2023-04-27T10:27:32.119Z,76.38
2023-04-27T10:28:31.144Z,76.22
2023-04-27T10:29:31.294Z,79.44
2023-04-27T10:30:31.488Z,75.25
2023-04-27T10:31:31.668Z,74.93
2023-04-27T10:32:31.876Z,78.47
2023-04-27T10:33:32.055Z,79.92
2023-04-27T10:34:32.223Z,74.44
2023-04-27T10:35:32.414Z,76.86
2023-04-27T10:36:33.139Z,76.54
2023-04-27T10:37:32.822Z,73.80
2023-04-27T10:38:34.002Z,74.60
2023-04-27T10:39:44.055Z,76.54
2023-04-27T10:40:35.660Z,77.99
2023-04-27T10:41:33.368Z,74.60
2023-04-27T10:42:33.567Z,74.77
2023-04-27T10:43:33.740Z,79.12
2023-04-27T10:44:33.924Z,74.28
2023-04-27T10:45:34.067Z,79.28
2023-04-27T10:46:34.368Z,75.41
2023-04-27T10:47:35.177Z,75.89
2023-04-27T10:48:36.106Z,79.92
2023-04-27T10:49:34.748Z,75.09
2023-04-27T10:50:34.946Z,77.67
2023-04-27T10:51:35.646Z,76.22
2023-04-27T10:52:35.231Z,76.05
2023-04-27T10:53:35.356Z,77.02
2023-04-27T10:54:35.527Z,75.89
2023-04-27T10:55:36.559Z,77.02
2023-04-27T10:56:35.912Z,73.48
2023-04-27T10:57:36.036Z,76.86
2023-04-27T10:58:48.128Z,75.09
2023-04-27T10:59:38.572Z,76.70
2023-04-27T11:00:37.543Z,84.11
2023-04-27T11:01:37.720Z,76.22
2023-04-27T11:02:37.059Z,75.41
2023-04-27T11:03:38.805Z,79.12
2023-04-27T11:04:37.435Z,77.99
2023-04-27T11:05:37.575Z,78.79
2023-04-27T11:06:37.715Z,72.99
2023-04-27T11:07:39.536Z,76.05
2023-04-27T11:08:38.157Z,77.67
2023-04-27T11:09:39.197Z,77.18
2023-04-27T11:10:38.563Z,74.28
2023-04-27T11:11:39.655Z,74.28
2023-04-27T11:12:39.672Z,78.47
2023-04-27T11:13:39.045Z,75.25
2023-04-27T11:14:39.182Z,73.48
2023-04-27T11:15:40.130Z,77.50
2023-04-27T11:16:40.199Z,76.70
2023-04-27T11:17:40.238Z,76.54
2023-04-27T11:18:39.903Z,73.64
2023-04-27T11:19:40.063Z,76.54
2023-04-27T11:20:40.213Z,78.15
2023-04-27T11:21:40.678Z,87.01
2023-04-27T11:22:42.621Z,73.15
2023-04-27T11:23:40.742Z,77.99
2023-04-27T11:24:42.622Z,79.44
2023-04-27T11:25:41.657Z,74.28
2023-04-27T11:26:41.268Z,83.63
2023-04-27T11:27:41.426Z,93.78
2023-04-27T11:28:41.619Z,75.89
2023-04-27T11:29:41.783Z,77.50
2023-04-27T11:30:42.659Z,72.51
2023-04-27T11:31:43.218Z,79.28
2023-04-27T11:32:43.278Z,73.80
2023-04-27T11:33:42.575Z,75.57
2023-04-27T11:34:42.729Z,74.60
2023-04-27T11:35:43.662Z,74.28
2023-04-27T11:36:43.066Z,75.41
2023-04-27T11:37:43.233Z,76.05
2023-04-27T11:38:43.506Z,76.54
2023-04-27T11:39:44.127Z,79.76
2023-04-27T11:40:43.768Z,78.15
2023-04-27T11:41:43.921Z,73.32
2023-04-27T11:42:44.050Z,77.18
2023-04-27T11:43:44.689Z,72.83
2023-04-27T11:44:44.378Z,73.96
2023-04-27T11:45:45.641Z,77.83
2023-04-27T11:46:44.812Z,73.64
2023-04-27T11:47:45.009Z,77.83
2023-04-27T11:48:46.157Z,77.34
2023-04-27T11:49:45.435Z,76.70
2023-04-27T11:50:46.175Z,76.86
2023-04-27T11:51:46.668Z,75.25
2023-04-27T11:52:46.036Z,76.05
2023-04-27T11:53:46.220Z,79.76
2023-04-27T11:54:46.687Z,76.86
2023-04-27T11:55:46.584Z,75.25
2023-04-27T11:56:47.630Z,76.05
2023-04-27T11:57:46.875Z,74.93
2023-04-27T11:58:48.150Z,75.73
2023-04-27T11:59:47.277Z,75.73
2023-04-27T12:00:48.166Z,82.34
2023-04-27T12:01:47.565Z,79.12
2023-04-27T12:02:47.878Z,72.19
2023-04-27T12:03:48.094Z,76.38
2023-04-27T12:04:48.340Z,76.70
2023-04-27T12:05:49.380Z,74.44
2023-04-27T12:06:48.550Z,70.42
2023-04-27T12:07:48.736Z,77.18
2023-04-27T12:08:48.876Z,75.73
2023-04-27T12:09:49.004Z,75.41
2023-04-27T12:10:49.160Z,76.22
2023-04-27T12:11:49.319Z,74.28
2023-04-27T12:12:49.574Z,76.86
2023-04-27T12:13:49.763Z,75.09
2023-04-27T12:14:49.937Z,74.28
2023-04-27T12:15:51.025Z,76.38
2023-04-27T12:16:52.175Z,78.47
2023-04-27T12:17:51.256Z,78.47
2023-04-27T12:18:50.730Z,75.57
2023-04-27T12:19:50.814Z,76.54
2023-04-27T12:20:50.957Z,78.47
2023-04-27T12:21:51.639Z,76.38
2023-04-27T12:22:52.196Z,77.18
2023-04-27T12:23:52.026Z,77.18
2023-04-27T12:24:52.660Z,75.41
2023-04-27T12:25:51.775Z,73.80
2023-04-27T12:26:51.921Z,71.06
2023-04-27T12:27:52.694Z,74.12
2023-04-27T12:28:52.346Z,74.12
2023-04-27T12:29:54.641Z,73.80
2023-04-27T12:30:52.750Z,73.80
2023-04-27T12:31:52.901Z,75.25
2023-04-27T12:32:53.740Z,75.41
2023-04-27T12:33:53.274Z,79.28
2023-04-27T12:34:53.428Z,75.73
2023-04-27T12:35:55.030Z,74.12
2023-04-27T12:36:53.776Z,74.60
2023-04-27T12:37:53.937Z,73.96
2023-04-27T12:38:54.064Z,75.57
2023-04-27T12:39:55.195Z,81.53
2023-04-27T12:41:16.195Z,81.86
2023-04-27T12:41:54.668Z,73.96
2023-04-27T12:42:54.817Z,73.48
2023-04-27T12:43:56.617Z,75.09
2023-04-27T12:44:55.681Z,79.12
2023-04-27T12:45:55.308Z,74.28
2023-04-27T12:46:55.625Z,76.54
2023-04-27T12:48:03.338Z,73.15
2023-04-27T12:48:57.923Z,79.28
2023-04-27T12:49:57.665Z,83.47
2023-04-27T12:50:56.385Z,75.41
2023-04-27T12:51:59.155Z,74.12
2023-04-27T12:52:56.611Z,74.28
2023-04-27T12:53:57.850Z,78.31
2023-04-27T12:54:56.973Z,73.15
2023-04-27T12:55:57.147Z,78.63